Parris Island, South Carolina
Current Conditions -  °F | °C
As of 12:35 PM on Wednesday 26 Nov 2014 (Local Time) from KARW Reporting Station
Haze Haze  
Wind Chill: 54°   Ceiling: 1200
Heat Index: 54°   Visibility: 5mi
Dew Point: 52°   Wind: 13mph
Humidity: 94%   Direction: 290°WNW
Pressure: 30.02"   Gusts: 21mph
Location:  32.4123°N, 80.7058°W
Report Text: KARW 261735Z AUTO 29011G18KT 5SM BR OVC012 12/11 A3002 RMK AO2
Loading
Personal Weather Stations






























Interactive Weather Map New forecast layout! Learn more

10-Day Weather Forecast

Advertisements
Track Severe Weather on mobile